createdAt,value
2023-07-03T00:00:19.884Z,35823.50
2023-07-03T00:02:53.361Z,35787.63
2023-07-03T00:05:21.601Z,35795.59
2023-07-03T00:07:48.377Z,35827.50
2023-07-03T00:10:16.359Z,35785.66
2023-07-03T00:12:43.672Z,35797.59
2023-07-03T00:15:10.992Z,35831.47
2023-07-03T00:17:40.619Z,35811.56
2023-07-03T00:20:12.295Z,35803.59
2023-07-03T00:22:38.768Z,35811.56
2023-07-03T00:25:05.725Z,35827.50
2023-07-03T00:27:32.801Z,35835.47
2023-07-03T00:29:59.417Z,35807.56
2023-07-03T00:32:29.076Z,35827.50
2023-07-03T00:34:57.629Z,35803.59
2023-07-03T00:37:24.312Z,35871.34
2023-07-03T00:39:50.894Z,35837.47
2023-07-03T00:42:17.369Z,35833.47
2023-07-03T00:44:44.435Z,35819.53
2023-07-03T00:47:12.008Z,35775.69
2023-07-03T00:49:38.588Z,35795.59
2023-07-03T00:52:05.450Z,35819.53
2023-07-03T00:54:32.917Z,35795.59
2023-07-03T00:56:59.468Z,35817.53
2023-07-03T00:59:26.049Z,35845.44
2023-07-03T01:02:09.788Z,35807.56
2023-07-03T01:04:50.788Z,35797.59
2023-07-03T01:07:21.790Z,35807.56
2023-07-03T01:09:54.789Z,35851.41
2023-07-03T01:12:24.410Z,35823.50
2023-07-03T01:14:51.595Z,35835.47
2023-07-03T01:17:19.358Z,35803.59
2023-07-03T01:19:48.650Z,35831.47
2023-07-03T01:22:24.832Z,35831.47
2023-07-03T01:24:58.206Z,35799.59
2023-07-03T01:27:27.664Z,35823.50
2023-07-03T01:29:54.526Z,35847.41
2023-07-03T01:32:25.949Z,35831.47
2023-07-03T01:34:54.922Z,35835.47
2023-07-03T01:37:25.487Z,35865.34
2023-07-03T01:39:52.801Z,35855.41
2023-07-03T01:42:22.884Z,35851.41
2023-07-03T01:44:49.479Z,35835.47
2023-07-03T01:47:17.120Z,35855.41
2023-07-03T01:49:45.101Z,35847.41
2023-07-03T01:52:24.772Z,35809.56
2023-07-03T01:55:15.419Z,35819.53
2023-07-03T01:57:53.538Z,35859.38
2023-07-03T02:00:33.744Z,35805.56
2023-07-03T02:03:04.409Z,35847.41
2023-07-03T02:05:35.473Z,35857.38
2023-07-03T02:08:03.440Z,35837.47
2023-07-03T02:10:30.069Z,35847.41
2023-07-03T02:12:56.692Z,35851.41
2023-07-03T02:15:24.307Z,35891.25
2023-07-03T02:17:55.407Z,35853.41
2023-07-03T02:20:24.713Z,35903.22
2023-07-03T02:22:51.346Z,35887.28
2023-07-03T02:25:17.805Z,35835.47
2023-07-03T02:27:44.293Z,35873.31
2023-07-03T02:30:11.565Z,35855.41
2023-07-03T02:32:40.560Z,35869.34
2023-07-03T02:35:08.973Z,35887.28
2023-07-03T02:37:35.476Z,35839.44
2023-07-03T02:40:02.139Z,35855.41
2023-07-03T02:42:29.798Z,35871.34
2023-07-03T02:44:56.575Z,35867.34
2023-07-03T02:47:23.235Z,35889.28
2023-07-03T02:49:50.017Z,35871.34
2023-07-03T02:52:17.371Z,35855.41
2023-07-03T02:54:44.192Z,35883.28
2023-07-03T02:57:11.350Z,35831.47
2023-07-03T02:59:37.942Z,35871.34
2023-07-03T03:02:04.742Z,35855.41
2023-07-03T03:04:32.124Z,35897.25
2023-07-03T03:06:58.631Z,35899.22
2023-07-03T03:09:25.229Z,35875.31
2023-07-03T03:11:53.734Z,35871.34
2023-07-03T03:14:20.336Z,35893.25
2023-07-03T03:16:47.273Z,35895.25
2023-07-03T03:19:13.899Z,35897.25
2023-07-03T03:21:40.692Z,35909.19
2023-07-03T03:24:07.470Z,35879.31
2023-07-03T03:26:34.087Z,35901.22
2023-07-03T03:29:01.134Z,35883.28
2023-07-03T03:31:29.572Z,35929.13
2023-07-03T03:34:01.134Z,35873.31
2023-07-03T03:36:28.152Z,35911.19
2023-07-03T03:38:54.869Z,35915.19
2023-07-03T03:41:21.528Z,35939.09
2023-07-03T03:43:48.572Z,35919.16
2023-07-03T03:46:15.834Z,35905.22
2023-07-03T03:48:42.345Z,35915.19
2023-07-03T03:51:10.893Z,35899.22
2023-07-03T03:53:37.554Z,35891.25
2023-07-03T03:56:04.248Z,35955.03
2023-07-03T03:58:33.237Z,35945.06
2023-07-03T04:01:00.030Z,35935.09
2023-07-03T04:03:26.975Z,35935.09
2023-07-03T04:05:54.312Z,35939.09
2023-07-03T04:08:20.978Z,35967.00
2023-07-03T04:10:47.517Z,35955.03
2023-07-03T04:13:14.175Z,35978.94
2023-07-03T04:15:53.269Z,35939.09
2023-07-03T04:18:20.871Z,35980.94
2023-07-03T04:20:49.586Z,35984.91
2023-07-03T04:23:16.896Z,35982.94
2023-07-03T04:25:44.117Z,35984.91
2023-07-03T04:28:11.944Z,35982.94
2023-07-03T04:30:38.640Z,35986.91
2023-07-03T04:33:05.404Z,35988.91
2023-07-03T04:35:31.904Z,36022.78
2023-07-03T04:37:58.329Z,36002.84
2023-07-03T04:40:24.766Z,35986.91
2023-07-03T04:42:51.185Z,35990.91
2023-07-03T04:45:17.635Z,36022.78
2023-07-03T04:47:44.109Z,36042.72
2023-07-03T04:50:13.942Z,36046.69
2023-07-03T04:52:40.375Z,36066.63
2023-07-03T04:55:09.372Z,36050.69
2023-07-03T04:57:39.564Z,36062.66
2023-07-03T05:00:15.657Z,36038.72
2023-07-03T05:02:47.419Z,36044.72
2023-07-03T05:05:15.886Z,36062.66
2023-07-03T05:07:43.621Z,36062.66
2023-07-03T05:10:12.296Z,36022.78
2023-07-03T05:12:38.886Z,36048.69
2023-07-03T05:15:10.841Z,36072.59
2023-07-03T05:17:39.684Z,36058.66
2023-07-03T05:20:09.847Z,36076.59
2023-07-03T05:22:41.759Z,36066.63
2023-07-03T05:25:10.070Z,36066.63
2023-07-03T05:27:37.579Z,36102.50
2023-07-03T05:30:05.555Z,36096.53
2023-07-03T05:32:32.371Z,36094.53
2023-07-03T05:35:00.322Z,36088.56
2023-07-03T05:37:26.799Z,36062.66
2023-07-03T05:39:53.307Z,36114.47
2023-07-03T05:42:20.863Z,36104.50
2023-07-03T05:44:48.057Z,36098.50
2023-07-03T05:47:16.340Z,36102.50
2023-07-03T05:49:43.874Z,36098.50
2023-07-03T05:52:11.724Z,36116.44
2023-07-03T05:54:38.938Z,36114.47
2023-07-03T05:57:11.599Z,36086.56
2023-07-03T05:59:40.942Z,36094.53
2023-07-03T06:02:11.264Z,36094.53
2023-07-03T06:04:38.214Z,36086.56
2023-07-03T06:07:05.411Z,36138.38
2023-07-03T06:09:34.065Z,36110.47
2023-07-03T06:12:02.307Z,36134.38
2023-07-03T06:14:30.843Z,36140.38
2023-07-03T06:16:58.879Z,36090.53
2023-07-03T06:19:26.884Z,36130.41
2023-07-03T06:21:54.053Z,36120.44
2023-07-03T06:24:20.848Z,36118.44
2023-07-03T06:26:47.323Z,36128.41
2023-07-03T06:29:15.284Z,36144.34
2023-07-03T06:31:42.190Z,36134.38
2023-07-03T06:34:09.165Z,36164.28
2023-07-03T06:36:36.025Z,36162.28
2023-07-03T06:39:05.846Z,36154.31
2023-07-03T06:41:34.963Z,36136.38
2023-07-03T06:44:02.750Z,36152.31
2023-07-03T06:46:29.328Z,36154.31
2023-07-03T06:48:56.660Z,36154.31
2023-07-03T06:51:24.770Z,36160.28
2023-07-03T06:53:51.618Z,36134.38
2023-07-03T06:56:19.291Z,36156.31
2023-07-03T06:58:48.718Z,36146.34
2023-07-03T07:01:16.904Z,36138.38
2023-07-03T07:03:43.613Z,36148.34
2023-07-03T07:06:32.275Z,36118.44
2023-07-03T07:09:00.439Z,36154.31
2023-07-03T07:11:31.634Z,36114.47
2023-07-03T07:14:00.150Z,36160.28
2023-07-03T07:16:35.287Z,36132.41
2023-07-03T07:19:05.286Z,36126.41
2023-07-03T07:21:33.892Z,36136.38
2023-07-03T07:24:03.419Z,36146.34
2023-07-03T07:26:34.664Z,36146.34
2023-07-03T07:29:01.964Z,36144.34
2023-07-03T07:31:29.424Z,36166.28
2023-07-03T07:33:56.841Z,36152.31
2023-07-03T07:36:25.115Z,36150.34
2023-07-03T07:38:56.981Z,36148.34
2023-07-03T07:41:26.222Z,36154.31
2023-07-03T07:43:54.351Z,36140.38
2023-07-03T07:46:26.245Z,36178.22
2023-07-03T07:48:52.909Z,36152.31
2023-07-03T07:51:19.404Z,36130.41
2023-07-03T07:53:45.899Z,36122.44
2023-07-03T07:56:12.431Z,36146.34
2023-07-03T07:58:39.152Z,36146.34
2023-07-03T08:01:06.940Z,36140.38
2023-07-03T08:03:33.662Z,36138.38
2023-07-03T08:06:01.944Z,36110.47
2023-07-03T08:08:29.482Z,36102.50
2023-07-03T08:10:57.539Z,36130.41
2023-07-03T08:13:24.849Z,36138.38
2023-07-03T08:15:52.383Z,36126.41
2023-07-03T08:18:20.342Z,36142.34
2023-07-03T08:20:47.688Z,36118.44
2023-07-03T08:23:15.278Z,36108.47
2023-07-03T08:25:42.903Z,36108.47
2023-07-03T08:28:10.646Z,36062.66
2023-07-03T08:30:37.715Z,36054.66
2023-07-03T08:33:04.336Z,36044.72
2023-07-03T08:38:01.509Z,36010.81
2023-07-03T08:40:28.144Z,35974.97
2023-07-03T08:42:56.695Z,36014.81
2023-07-03T08:45:30.410Z,35970.97
2023-07-03T08:47:59.641Z,35998.88
2023-07-03T08:50:36.710Z,35959.00
2023-07-03T08:53:05.677Z,35937.09
2023-07-03T08:55:42.087Z,35951.03
2023-07-03T08:58:09.857Z,35970.97
2023-07-03T09:00:46.179Z,35982.94
2023-07-03T09:03:18.894Z,35963.00
2023-07-03T09:06:19.667Z,35911.19
2023-07-03T09:08:54.799Z,35903.22
2023-07-03T09:11:23.234Z,35955.03
2023-07-03T09:13:53.535Z,35937.09
2023-07-03T09:16:23.336Z,35927.13
2023-07-03T09:19:00.382Z,35933.09
2023-07-03T09:21:28.935Z,35937.09
2023-07-03T09:24:01.717Z,35919.16
2023-07-03T09:26:40.944Z,35919.16
2023-07-03T09:29:07.916Z,35907.19
2023-07-03T09:31:34.641Z,35911.19
2023-07-03T09:34:01.181Z,35919.16
2023-07-03T09:36:33.305Z,35883.28
2023-07-03T09:39:11.668Z,35915.19
2023-07-03T09:41:39.218Z,35897.25
2023-07-03T09:44:18.268Z,35968.97
2023-07-03T09:46:47.398Z,35933.09
2023-07-03T09:49:32.295Z,35933.09
2023-07-03T09:51:59.523Z,35947.06
2023-07-03T09:54:31.207Z,35935.09
2023-07-03T09:56:58.085Z,35957.03
2023-07-03T09:59:25.605Z,35927.13
2023-07-03T10:07:06.992Z,35871.34
2023-07-03T10:12:33.388Z,35935.09
2023-07-03T10:15:11.386Z,35899.22
2023-07-03T10:18:00.402Z,35875.31
2023-07-03T10:20:33.608Z,35887.28
2023-07-03T10:23:03.937Z,35891.25
2023-07-03T10:25:38.443Z,35883.28
2023-07-03T10:28:10.745Z,35831.47
2023-07-03T10:30:40.607Z,35863.38
2023-07-03T10:33:13.169Z,35855.41
2023-07-03T10:35:42.417Z,35863.38
2023-07-03T10:38:22.827Z,35879.31
2023-07-03T10:41:18.684Z,35865.34
2023-07-03T10:43:58.187Z,35867.34
2023-07-03T10:46:32.109Z,35795.59
2023-07-03T10:49:05.591Z,35871.34
2023-07-03T10:51:51.936Z,35807.56
2023-07-03T10:54:26.208Z,35841.44
2023-07-03T10:56:56.652Z,35803.59
2023-07-03T10:59:28.305Z,35803.59
2023-07-03T11:02:18.181Z,35855.41
2023-07-03T11:04:53.514Z,35807.56
2023-07-03T11:08:01.639Z,35789.63
2023-07-03T11:10:42.589Z,35819.53
2023-07-03T11:13:22.307Z,35809.56
2023-07-03T11:16:07.140Z,35831.47
2023-07-03T11:24:09.800Z,35835.47
2023-07-03T11:29:12.499Z,35863.38
2023-07-03T11:31:44.238Z,35859.38
2023-07-03T11:36:50.932Z,35855.41
2023-07-03T11:45:01.435Z,35891.25
2023-07-03T11:47:34.944Z,35891.25
2023-07-03T11:50:05.623Z,35891.25
2023-07-03T11:52:34.752Z,35843.44
2023-07-03T11:55:12.300Z,35779.66
2023-07-03T11:57:42.064Z,35755.75
2023-07-03T12:00:18.875Z,35755.75
2023-07-03T12:02:55.638Z,35773.69
2023-07-03T12:05:44.064Z,35763.72
2023-07-03T12:08:19.669Z,35791.63
2023-07-03T12:10:56.180Z,35787.63
2023-07-03T12:13:35.684Z,35781.66
2023-07-03T12:16:06.067Z,35787.63
2023-07-03T12:18:35.414Z,35817.53
2023-07-03T12:21:06.325Z,35847.41
2023-07-03T12:23:40.848Z,35781.66
2023-07-03T12:26:13.075Z,35819.53
2023-07-03T12:28:42.156Z,35831.47
2023-07-03T12:31:10.642Z,35803.59
2023-07-03T12:33:37.340Z,35823.50
2023-07-03T12:36:03.986Z,35815.53
2023-07-03T12:38:30.456Z,35795.59
2023-07-03T12:40:56.957Z,35783.66
2023-07-03T12:43:23.442Z,35703.94
2023-07-03T12:45:54.766Z,35666.09
2023-07-03T12:48:23.603Z,35636.19
2023-07-03T12:50:54.665Z,35652.13
2023-07-03T12:53:22.263Z,35600.34
2023-07-03T12:55:53.351Z,35572.44
2023-07-03T12:58:21.002Z,35540.56
2023-07-03T13:00:58.610Z,35508.69
2023-07-03T13:03:25.085Z,35520.63
2023-07-03T13:05:52.587Z,35488.75
2023-07-03T13:08:19.545Z,35498.72
2023-07-03T13:11:00.164Z,35464.84
2023-07-03T13:13:27.468Z,35474.81
2023-07-03T13:15:54.159Z,35448.91
2023-07-03T13:18:23.753Z,35430.97
2023-07-03T13:21:06.202Z,35468.81
2023-07-03T13:23:36.570Z,35484.75
2023-07-03T13:26:08.419Z,35448.91
2023-07-03T13:28:38.427Z,35452.88
2023-07-03T13:31:22.198Z,35464.84
2023-07-03T13:34:03.226Z,35480.78
2023-07-03T13:36:33.919Z,35474.81
2023-07-03T13:39:13.919Z,35464.84
2023-07-03T13:41:43.537Z,35510.66
2023-07-03T13:44:13.454Z,35516.66
2023-07-03T13:46:41.384Z,35528.59
2023-07-03T13:49:09.313Z,35526.59
2023-07-03T13:51:39.138Z,35550.50
2023-07-03T13:54:12.138Z,35512.66
2023-07-03T13:56:40.673Z,35548.53
2023-07-03T13:59:10.119Z,35554.50
2023-07-03T14:01:37.725Z,35540.56
2023-07-03T14:04:04.693Z,35512.66
2023-07-03T14:06:33.217Z,35558.50
2023-07-03T14:08:59.822Z,35542.53
2023-07-03T14:11:26.383Z,35552.50
2023-07-03T14:13:53.860Z,35544.53
2023-07-03T14:16:20.602Z,35576.41
2023-07-03T14:18:47.094Z,35568.44
2023-07-03T14:21:15.078Z,35552.50
2023-07-03T14:23:41.901Z,35552.50
2023-07-03T14:26:13.239Z,35564.47
2023-07-03T14:28:41.388Z,35592.38
2023-07-03T14:31:13.353Z,35592.38
2023-07-03T14:33:40.443Z,35594.34
2023-07-03T14:36:07.971Z,35560.47
2023-07-03T14:38:34.622Z,35584.38
2023-07-03T14:41:01.708Z,35594.34
2023-07-03T14:43:28.262Z,35586.38
2023-07-03T14:45:54.841Z,35556.50
2023-07-03T14:48:21.920Z,35562.47
2023-07-03T14:50:49.240Z,35568.44
2023-07-03T14:53:16.504Z,35594.34
2023-07-03T14:55:42.926Z,35612.28
2023-07-03T14:58:11.723Z,35582.41
2023-07-03T15:00:40.079Z,35620.25
2023-07-03T15:03:07.153Z,35580.41
2023-07-03T15:05:33.899Z,35540.56
2023-07-03T15:08:02.179Z,35600.34
2023-07-03T15:10:28.664Z,35600.34
2023-07-03T15:12:56.560Z,35576.41
2023-07-03T15:15:24.305Z,35610.28
2023-07-03T15:17:52.256Z,35604.31
2023-07-03T15:20:19.372Z,35630.22
2023-07-03T15:22:53.316Z,35602.31
2023-07-03T15:25:19.949Z,35620.25
2023-07-03T15:27:46.402Z,35572.44
2023-07-03T15:30:13.229Z,35552.50
2023-07-03T15:32:39.713Z,35556.50
2023-07-03T15:35:06.397Z,35588.38
2023-07-03T15:37:32.821Z,35582.41
2023-07-03T15:39:59.270Z,35596.34
2023-07-03T15:42:26.173Z,35592.38
2023-07-03T15:44:57.416Z,35602.31
2023-07-03T15:47:24.278Z,35628.22
2023-07-03T15:49:56.068Z,35612.28
2023-07-03T15:52:23.034Z,35612.28
2023-07-03T15:54:51.559Z,35620.25
2023-07-03T15:57:19.164Z,35562.47
2023-07-03T15:59:45.795Z,35600.34
2023-07-03T16:02:12.362Z,35620.25
2023-07-03T16:04:39.733Z,35586.38
2023-07-03T16:07:06.319Z,35652.13
2023-07-03T16:09:32.906Z,35638.19
2023-07-03T16:11:59.373Z,35644.16
2023-07-03T16:14:28.199Z,35648.16
2023-07-03T16:16:55.041Z,35612.28
2023-07-03T16:19:21.531Z,35622.25
2023-07-03T16:21:48.429Z,35640.19
2023-07-03T16:24:14.860Z,35596.34
2023-07-03T16:26:41.668Z,35630.22
2023-07-03T16:29:09.800Z,35612.28
2023-07-03T16:31:39.114Z,35608.31
2023-07-03T16:34:06.022Z,35608.31
2023-07-03T16:36:32.845Z,35640.19
2023-07-03T16:39:01.155Z,35600.34
2023-07-03T16:41:29.585Z,35640.19
2023-07-03T16:43:58.350Z,35626.22
2023-07-03T16:46:26.966Z,35642.19
2023-07-03T16:48:55.032Z,35608.31
2023-07-03T16:51:22.376Z,35664.09
2023-07-03T16:53:49.202Z,35656.13
2023-07-03T16:56:18.974Z,35660.09
2023-07-03T16:58:46.832Z,35652.13
2023-07-03T17:01:16.899Z,35656.13
2023-07-03T17:03:43.709Z,35658.13
2023-07-03T17:06:30.244Z,35648.16
2023-07-03T17:08:57.206Z,35670.06
2023-07-03T17:11:24.996Z,35646.16
2023-07-03T17:13:53.292Z,35632.22
2023-07-03T17:16:20.695Z,35644.16
2023-07-03T17:18:47.601Z,35648.16
2023-07-03T17:21:14.339Z,35640.19
2023-07-03T17:23:40.878Z,35658.13
2023-07-03T17:26:07.608Z,35648.16
2023-07-03T17:28:34.386Z,35680.03
2023-07-03T17:31:04.160Z,35668.06
2023-07-03T17:33:30.870Z,35648.16
2023-07-03T17:35:57.405Z,35674.06
2023-07-03T17:38:23.857Z,35680.03
2023-07-03T17:40:50.420Z,35668.06
2023-07-03T17:43:22.712Z,35654.13
2023-07-03T17:45:54.285Z,35652.13
2023-07-03T17:48:21.949Z,35608.31
2023-07-03T17:50:50.501Z,35646.16
2023-07-03T17:53:17.504Z,35628.22
2023-07-03T17:55:44.702Z,35636.19
2023-07-03T17:58:11.171Z,35644.16
2023-07-03T18:00:37.857Z,35656.13
2023-07-03T18:03:06.001Z,35668.06
2023-07-03T18:05:36.583Z,35658.13
2023-07-03T18:08:04.335Z,35688.00
2023-07-03T18:10:33.149Z,35680.03
2023-07-03T18:13:00.887Z,35672.06
2023-07-03T18:15:39.270Z,35662.09
2023-07-03T18:18:11.058Z,35654.13
2023-07-03T18:20:37.527Z,35664.09
2023-07-03T18:23:04.309Z,35680.03
2023-07-03T18:25:34.135Z,35713.91
2023-07-03T18:28:00.589Z,35701.97
2023-07-03T18:30:27.142Z,35688.00
2023-07-03T18:32:53.667Z,35684.03
2023-07-03T18:35:20.144Z,35682.03
2023-07-03T18:37:47.033Z,35727.84
2023-07-03T18:40:14.354Z,35709.94
2023-07-03T18:42:41.033Z,35695.97
2023-07-03T18:45:07.885Z,35699.97
2023-07-03T18:47:34.403Z,35688.00
2023-07-03T18:50:00.838Z,35688.00
2023-07-03T18:52:27.364Z,35672.06
2023-07-03T18:54:53.786Z,35678.03
2023-07-03T18:57:20.234Z,35666.09
2023-07-03T18:59:47.277Z,35684.03
2023-07-03T19:02:16.171Z,35684.03
2023-07-03T19:04:44.448Z,35676.06
2023-07-03T19:07:11.977Z,35695.97
2023-07-03T19:09:39.560Z,35644.16
2023-07-03T19:12:07.530Z,35692.00
2023-07-03T19:14:34.354Z,35697.97
2023-07-03T19:17:00.874Z,35684.03
2023-07-03T19:19:27.489Z,35678.03
2023-07-03T19:21:53.995Z,35672.06
2023-07-03T19:24:21.225Z,35692.00
2023-07-03T19:26:48.509Z,35695.97
2023-07-03T19:29:15.004Z,35692.00
2023-07-03T19:31:41.673Z,35695.97
2023-07-03T19:34:08.273Z,35676.06
2023-07-03T19:36:34.816Z,35684.03
2023-07-03T19:39:01.382Z,35692.00
2023-07-03T19:41:27.902Z,35640.19
2023-07-03T19:43:54.383Z,35703.94
2023-07-03T19:46:20.954Z,35686.00
2023-07-03T19:48:47.710Z,35688.00
2023-07-03T19:51:14.329Z,35692.00
2023-07-03T19:53:41.336Z,35703.94
2023-07-03T19:56:19.536Z,35695.97
2023-07-03T19:58:48.478Z,35711.91
2023-07-03T20:01:16.104Z,35672.06
2023-07-03T20:03:42.954Z,35658.13
2023-07-03T20:06:21.035Z,35672.06
2023-07-03T20:08:54.683Z,35715.91
2023-07-03T20:11:21.542Z,35727.84
2023-07-03T20:13:50.826Z,35692.00
2023-07-03T20:16:19.217Z,35711.91
2023-07-03T20:18:50.293Z,35723.88
2023-07-03T20:21:17.998Z,35705.94
2023-07-03T20:23:46.453Z,35711.91
2023-07-03T20:26:12.872Z,35715.91
2023-07-03T20:28:40.203Z,35727.84
2023-07-03T20:31:11.158Z,35739.81
2023-07-03T20:33:37.671Z,35721.88
2023-07-03T20:36:06.615Z,35719.88
2023-07-03T20:38:33.365Z,35727.84
2023-07-03T20:41:03.410Z,35733.84
2023-07-03T20:43:29.889Z,35731.84
2023-07-03T20:45:58.046Z,35759.75
2023-07-03T20:48:26.031Z,35751.78
2023-07-03T20:50:55.460Z,35731.84
2023-07-03T20:53:40.242Z,35739.81
2023-07-03T20:56:11.271Z,35719.88
2023-07-03T20:58:38.815Z,35719.88
2023-07-03T21:01:14.770Z,35735.81
2023-07-03T21:03:45.033Z,35727.84
2023-07-03T21:06:12.971Z,35699.97
2023-07-03T21:08:41.350Z,35693.97
2023-07-03T21:11:12.306Z,35711.91
2023-07-03T21:13:43.175Z,35707.94
2023-07-03T21:16:11.304Z,35695.97
2023-07-03T21:18:38.553Z,35729.84
2023-07-03T21:21:25.400Z,35703.94
2023-07-03T21:23:52.638Z,35711.91
2023-07-03T21:26:22.119Z,35719.88
2023-07-03T21:28:49.986Z,35719.88
2023-07-03T21:31:18.997Z,35723.88
2023-07-03T21:33:45.729Z,35709.94
2023-07-03T21:36:21.303Z,35715.91
2023-07-03T21:38:49.776Z,35717.91
2023-07-03T21:41:17.066Z,35731.84
2023-07-03T21:43:48.359Z,35721.88
2023-07-03T21:46:15.454Z,35747.78
2023-07-03T21:48:43.540Z,35719.88
2023-07-03T21:51:12.557Z,35703.94
2023-07-03T21:53:40.009Z,35699.97
2023-07-03T21:56:12.657Z,35727.84
2023-07-03T21:58:40.645Z,35695.97
2023-07-03T22:01:15.588Z,35733.84
2023-07-03T22:03:42.136Z,35741.81
2023-07-03T22:06:08.729Z,35715.91
2023-07-03T22:08:35.184Z,35713.91
2023-07-03T22:11:01.671Z,35739.81
2023-07-03T22:13:28.186Z,35743.81
2023-07-03T22:15:55.288Z,35719.88
2023-07-03T22:18:21.938Z,35727.84
2023-07-03T22:20:52.439Z,35703.94
2023-07-03T22:23:31.509Z,35755.75
2023-07-03T22:25:59.361Z,35713.91
2023-07-03T22:28:26.416Z,35731.84
2023-07-03T22:30:53.341Z,35759.75
2023-07-03T22:33:20.250Z,35735.81
2023-07-03T22:35:46.842Z,35741.81
2023-07-03T22:38:13.353Z,35751.78
2023-07-03T22:40:40.690Z,35723.88
2023-07-03T22:43:08.868Z,35767.72
2023-07-03T22:45:35.558Z,35715.91
2023-07-03T22:48:02.854Z,35755.75
2023-07-03T22:50:29.394Z,35755.75
2023-07-03T22:52:56.721Z,35789.63
2023-07-03T22:55:23.181Z,35763.72
2023-07-03T22:57:49.673Z,35739.81
2023-07-03T23:00:17.841Z,35777.69
2023-07-03T23:02:44.982Z,35767.72
2023-07-03T23:05:11.933Z,35765.72
2023-07-03T23:07:39.889Z,35769.72
2023-07-03T23:10:07.747Z,35759.75
2023-07-03T23:12:34.905Z,35781.66
2023-07-03T23:15:01.361Z,35737.81
2023-07-03T23:17:30.728Z,35787.63
2023-07-03T23:19:57.473Z,35759.75
2023-07-03T23:22:25.077Z,35799.59
2023-07-03T23:24:55.782Z,35777.69
2023-07-03T23:27:23.323Z,35799.59
2023-07-03T23:29:50.967Z,35799.59
2023-07-03T23:32:18.216Z,35807.56
2023-07-03T23:34:44.969Z,35795.59
2023-07-03T23:37:11.731Z,35791.63
2023-07-03T23:39:39.120Z,35803.59
2023-07-03T23:42:06.920Z,35783.66
2023-07-03T23:44:34.144Z,35793.63
2023-07-03T23:47:00.799Z,35815.53
2023-07-03T23:49:27.822Z,35807.56
2023-07-03T23:51:55.036Z,35805.56
2023-07-03T23:54:25.224Z,35831.47
2023-07-03T23:56:52.836Z,35815.53
2023-07-03T23:59:20.502Z,35815.53
